Time;durP1;ratioP1;P1;durP2;ratioP2;P2;SDS_P1;SDS_P2;PMS_P1;PMS_P2;Temp;Humidity;BMP_temperature;BMP_pressure;BME280_temperature;BME280_humidity;BME280_pressure;Samples;Min_cycle;Max_cycle;Signal;HPM_P1;HPM_P2
2022/04/15 00:02:10;;;;;;;11.97;7.13;;;8.30;84.40;;;;;;5015480;28;20252;-89
2022/04/15 00:04:36;;;;;;;10.90;6.80;;;8.30;84.30;;;;;;4998203;28;20264;-89
2022/04/15 00:07:02;;;;;;;17.30;7.03;;;8.30;84.40;;;;;;4997596;28;20197;-89
2022/04/15 00:09:30;;;;;;;14.90;6.63;;;8.30;84.30;;;;;;4997856;28;20174;-89
2022/04/15 00:11:56;;;;;;;15.23;6.40;;;8.20;84.50;;;;;;4997299;28;20204;-90
2022/04/15 00:14:22;;;;;;;9.70;5.37;;;8.30;84.50;;;;;;4997416;28;20181;-89
2022/04/15 00:16:48;;;;;;;14.47;6.37;;;8.20;84.20;;;;;;4996737;28;20201;-89
2022/04/15 00:19:14;;;;;;;10.73;5.60;;;8.30;84.10;;;;;;4996959;28;20684;-89
2022/04/15 00:21:40;;;;;;;7.13;4.80;;;8.30;84.20;;;;;;4997054;28;20174;-90
2022/04/15 00:24:06;;;;;;;8.90;5.53;;;8.20;83.90;;;;;;4996450;28;20174;-89
2022/04/15 00:26:31;;;;;;;17.83;5.90;;;8.20;84.00;;;;;;4996968;28;20201;-89
2022/04/15 00:28:58;;;;;;;13.13;5.67;;;8.20;84.20;;;;;;4996898;28;20177;-89
2022/04/15 00:31:23;;;;;;;7.10;4.60;;;8.20;84.20;;;;;;4996959;28;20228;-89
2022/04/15 00:33:49;;;;;;;9.27;4.77;;;8.10;84.10;;;;;;4996896;28;20181;-89
2022/04/15 00:36:15;;;;;;;8.33;5.23;;;8.10;83.70;;;;;;4996859;28;20213;-89
2022/04/15 00:38:40;;;;;;;9.27;4.90;;;8.20;83.70;;;;;;4996765;28;20380;-89
2022/04/15 00:41:06;;;;;;;9.70;5.23;;;8.20;83.70;;;;;;4997290;28;20174;-89
2022/04/15 00:43:32;;;;;;;9.37;4.97;;;8.10;83.80;;;;;;5014258;28;20177;-89
2022/04/15 00:46:08;;;;;;;10.03;6.03;;;8.10;83.80;;;;;;5014241;28;20188;-90
2022/04/15 00:48:35;;;;;;;11.77;6.57;;;8.10;84.00;;;;;;5014103;28;20177;-90
2022/04/15 00:51:02;;;;;;;10.20;6.70;;;8.10;84.00;;;;;;4996839;28;20184;-89
2022/04/15 00:53:29;;;;;;;10.67;7.13;;;8.10;84.20;;;;;;4996489;28;20182;-89
2022/04/15 00:56:03;;;;;;;14.70;7.47;;;8.00;84.60;;;;;;4996457;28;20228;-89
2022/04/15 00:58:33;;;;;;;13.40;6.63;;;8.10;84.60;;;;;;5014044;28;20192;-89
2022/04/15 01:01:00;;;;;;;11.80;7.43;;;8.10;84.70;;;;;;4996448;28;20177;-89
2022/04/15 01:03:25;;;;;;;14.67;7.07;;;8.10;84.90;;;;;;4996802;28;20513;-89
2022/04/15 01:05:56;;;;;;;10.50;6.90;;;8.00;85.20;;;;;;5014083;28;20204;-89
2022/04/15 01:08:25;;;;;;;17.30;8.90;;;8.10;85.20;;;;;;4997045;28;20174;-89
2022/04/15 01:10:53;;;;;;;15.90;8.87;;;8.10;85.40;;;;;;4996354;28;20682;-89
2022/04/15 01:13:20;;;;;;;15.97;8.10;;;8.10;85.70;;;;;;5014090;28;20177;-89
2022/04/15 01:15:48;;;;;;;16.03;9.03;;;8.00;86.00;;;;;;4996156;28;20201;-89
2022/04/15 01:18:13;;;;;;;17.80;9.83;;;8.10;86.10;;;;;;4996053;28;20580;-89
2022/04/15 01:20:41;;;;;;;20.23;8.43;;;8.10;86.10;;;;;;5013722;28;20180;-89
2022/04/15 01:23:12;;;;;;;18.40;9.37;;;8.10;86.10;;;;;;4996319;28;20180;-89
2022/04/15 01:25:38;;;;;;;16.40;9.07;;;8.00;86.30;;;;;;4996044;28;20197;-89
2022/04/15 01:28:04;;;;;;;15.67;8.87;;;8.00;86.60;;;;;;4996385;28;20244;-89
2022/04/15 01:30:30;;;;;;;12.57;8.47;;;8.00;86.50;;;;;;4995989;28;20606;-90
2022/04/15 01:32:56;;;;;;;17.33;9.47;;;8.00;86.60;;;;;;4995985;28;20181;-89
2022/04/15 01:35:21;;;;;;;12.63;8.00;;;8.10;86.60;;;;;;4995951;28;20224;-89
2022/04/15 01:37:48;;;;;;;13.17;9.10;;;8.10;86.50;;;;;;4995950;28;20290;-89
2022/04/15 01:40:16;;;;;;;16.70;8.23;;;8.20;86.60;;;;;;4997008;28;20239;-89
2022/04/15 01:42:43;;;;;;;20.50;8.77;;;8.10;86.70;;;;;;4995815;28;20267;-90
2022/04/15 01:45:09;;;;;;;12.80;7.97;;;8.10;86.60;;;;;;5015364;28;20521;-89
2022/04/15 01:47:36;;;;;;;20.37;7.57;;;8.10;86.60;;;;;;4996315;28;20279;-89
2022/04/15 01:50:05;;;;;;;14.23;7.10;;;8.00;86.70;;;;;;4995806;28;20561;-89
2022/04/15 01:52:30;;;;;;;11.23;8.13;;;8.00;86.70;;;;;;4995965;28;20272;-89
2022/04/15 01:54:56;;;;;;;11.67;6.53;;;7.90;86.70;;;;;;4996564;28;20208;-89
2022/04/15 01:57:21;;;;;;;9.77;6.70;;;7.80;86.50;;;;;;5013397;28;20186;-89
2022/04/15 01:59:47;;;;;;;7.13;6.40;;;7.80;86.70;;;;;;4996007;28;20216;-90
2022/04/15 02:02:12;;;;;;;7.83;6.30;;;7.80;86.60;;;;;;4995738;28;20267;-89
2022/04/15 02:04:38;;;;;;;10.17;6.50;;;7.80;86.50;;;;;;4995706;28;20183;-89
2022/04/15 02:07:04;;;;;;;11.00;6.33;;;7.80;86.40;;;;;;4995824;28;20565;-90
2022/04/15 02:09:30;;;;;;;7.43;5.77;;;7.80;86.40;;;;;;4995714;28;20188;-89
2022/04/15 02:11:56;;;;;;;9.60;6.10;;;7.90;86.40;;;;;;4995866;28;20181;-90
2022/04/15 02:14:22;;;;;;;11.60;7.00;;;7.90;86.40;;;;;;5013115;28;20185;-89
2022/04/15 02:16:48;;;;;;;12.83;7.53;;;7.90;86.60;;;;;;4995414;28;20201;-90
2022/04/15 02:19:14;;;;;;;11.03;6.90;;;7.90;86.60;;;;;;4995513;28;20675;-89
2022/04/15 02:21:40;;;;;;;14.93;7.57;;;7.80;86.80;;;;;;5013067;28;20180;-89
2022/04/15 02:24:06;;;;;;;11.00;7.57;;;7.90;86.90;;;;;;4995812;28;20181;-89
2022/04/15 02:26:32;;;;;;;11.57;7.50;;;7.80;87.00;;;;;;4995496;28;20560;-89
2022/04/15 02:28:58;;;;;;;12.27;7.93;;;7.80;87.10;;;;;;5013053;28;20268;-89
2022/04/15 02:31:24;;;;;;;10.90;7.93;;;7.90;87.30;;;;;;4995450;28;20209;-89
2022/04/15 02:33:49;;;;;;;14.50;8.90;;;7.80;87.40;;;;;;4995732;28;20616;-89
2022/04/15 02:38:51;;;;;;;12.50;9.30;;;7.80;87.70;;;;;;5177892;22;20233;-93
2022/04/15 02:41:17;;;;;;;17.97;9.90;;;7.80;87.70;;;;;;5020584;28;20177;-93
2022/04/15 02:43:43;;;;;;;17.93;9.20;;;7.80;87.60;;;;;;5021082;28;20164;-93
2022/04/15 03:09:28;;;;;;;22.83;14.30;;;7.80;89.00;;;;;;1410031;22;20486;-96
2022/04/15 03:11:54;;;;;;;19.13;13.70;;;7.80;88.90;;;;;;5022557;28;20212;-92
2022/04/15 03:14:20;;;;;;;24.73;15.37;;;7.90;89.00;;;;;;5024095;28;20181;-94
2022/04/15 03:16:46;;;;;;;24.27;16.63;;;7.80;89.10;;;;;;5024010;28;20188;-92
2022/04/15 03:19:12;;;;;;;33.93;17.90;;;7.80;89.20;;;;;;5023124;28;20217;-93
2022/04/15 03:21:38;;;;;;;31.47;17.87;;;7.80;89.40;;;;;;5024088;28;20166;-93
2022/04/15 03:24:05;;;;;;;26.30;18.97;;;7.90;89.30;;;;;;5024090;28;20170;-92
2022/04/15 03:26:31;;;;;;;30.13;19.57;;;7.90;89.40;;;;;;5023940;28;20181;-96
2022/04/15 03:28:57;;;;;;;28.33;18.00;;;7.80;89.50;;;;;;5023701;28;20256;-94
2022/04/15 03:31:22;;;;;;;31.53;20.33;;;7.80;89.60;;;;;;5022762;28;20169;-91
2022/04/15 03:33:48;;;;;;;33.13;21.60;;;7.80;89.60;;;;;;5022986;28;20276;-91
2022/04/15 03:36:14;;;;;;;34.93;21.60;;;7.80;89.60;;;;;;5022798;28;20181;-92
2022/04/15 03:38:40;;;;;;;39.07;23.97;;;7.80;89.60;;;;;;5023910;28;20189;-93
2022/04/15 03:41:06;;;;;;;34.97;21.30;;;7.90;89.60;;;;;;5023878;28;20188;-93
2022/04/15 03:43:32;;;;;;;33.97;21.47;;;7.90;89.50;;;;;;5024146;28;20165;-96
2022/04/15 03:45:59;;;;;;;25.87;19.60;;;8.00;89.50;;;;;;5023701;28;20177;-95
2022/04/15 03:48:25;;;;;;;31.63;20.07;;;7.90;89.50;;;;;;5023979;28;20347;-95
2022/04/15 03:50:51;;;;;;;40.30;25.13;;;7.90;89.60;;;;;;5023927;28;20197;-93
2022/04/15 03:53:17;;;;;;;42.07;25.50;;;7.90;89.70;;;;;;5023372;28;20179;-94
2022/04/15 03:55:43;;;;;;;38.53;24.10;;;7.90;89.70;;;;;;5023734;28;20192;-92
2022/04/15 03:58:11;;;;;;;36.47;25.23;;;7.90;89.70;;;;;;5023225;28;20181;-94
2022/04/15 04:03:14;;;;;;;37.30;24.07;;;8.00;89.70;;;;;;5589394;22;20227;-93
2022/04/15 04:05:40;;;;;;;41.87;23.30;;;8.00;89.60;;;;;;5023377;28;20161;-95
2022/04/15 04:08:06;;;;;;;46.03;23.40;;;8.00;89.60;;;;;;5022944;28;20181;-92
2022/04/15 04:10:33;;;;;;;49.47;23.83;;;8.00;89.70;;;;;;5023178;28;20169;-92
2022/04/15 04:20:45;;;;;;;59.10;26.97;;;8.00;90.10;;;;;;5339711;22;20241;-94
2022/04/15 04:23:11;;;;;;;65.00;28.37;;;8.00;90.00;;;;;;5022620;28;20158;-96
2022/04/15 04:25:37;;;;;;;63.23;27.30;;;8.00;90.10;;;;;;5022604;28;20193;-92
2022/04/15 04:28:03;;;;;;;67.77;28.40;;;8.00;90.20;;;;;;5022797;28;20189;-94
2022/04/15 04:43:26;;;;;;;55.80;26.33;;;8.10;90.10;;;;;;5572458;22;20235;-96
2022/04/15 04:48:27;;;;;;;57.73;25.80;;;8.10;90.10;;;;;;5740591;22;20702;-90
2022/04/15 04:50:52;;;;;;;61.17;24.70;;;8.10;90.00;;;;;;5002951;28;20207;-90
2022/04/15 04:53:18;;;;;;;53.67;27.17;;;8.10;90.00;;;;;;5000636;28;20177;-90
2022/04/15 04:55:51;;;;;;;50.53;25.50;;;8.10;90.00;;;;;;5004686;28;20178;-93
2022/04/15 04:58:17;;;;;;;60.03;27.13;;;8.10;90.00;;;;;;5019844;28;20212;-92
2022/04/15 05:08:30;;;;;;;53.90;28.83;;;8.20;90.10;;;;;;5163929;22;20236;-91
2022/04/15 05:13:27;;;;;;;67.10;28.40;;;8.30;90.00;;;;;;5037127;28;20244;-95
2022/04/15 05:15:53;;;;;;;55.50;25.97;;;8.30;90.10;;;;;;5020971;28;20193;-95
2022/04/15 05:18:30;;;;;;;51.43;27.83;;;8.20;90.10;;;;;;5471379;23;20220;-92
2022/04/15 05:20:56;;;;;;;66.03;27.43;;;8.20;90.10;;;;;;5280559;23;20234;-93
2022/04/15 05:23:25;;;;;;;56.77;27.53;;;8.30;90.20;;;;;;4981505;28;20166;-94
2022/04/15 05:26:00;;;;;;;48.07;26.17;;;8.30;90.20;;;;;;4982514;28;20175;-94
2022/04/15 05:28:26;;;;;;;55.57;26.90;;;8.20;90.30;;;;;;5167555;23;20248;-92
2022/04/15 05:30:52;;;;;;;49.80;26.37;;;8.20;90.40;;;;;;5003073;28;20170;-92
2022/04/15 05:33:17;;;;;;;63.03;28.20;;;8.20;90.40;;;;;;5001398;28;20667;-92
2022/04/15 05:35:43;;;;;;;59.43;27.73;;;8.20;90.50;;;;;;5004696;28;20189;-93
2022/04/15 05:38:20;;;;;;;61.43;27.40;;;8.30;90.50;;;;;;5003295;28;20217;-94
2022/04/15 05:40:46;;;;;;;55.53;28.53;;;8.30;90.50;;;;;;5006835;28;20189;-92
2022/04/15 05:43:12;;;;;;;57.33;28.70;;;8.30;90.50;;;;;;5000097;28;20228;-92
2022/04/15 05:45:37;;;;;;;56.30;34.30;;;8.30;90.50;;;;;;4999609;28;20185;-93
2022/04/15 05:48:03;;;;;;;62.93;39.53;;;8.30;90.40;;;;;;4997382;28;20554;-92
2022/04/15 05:50:29;;;;;;;72.33;44.73;;;8.30;90.40;;;;;;5157481;23;20403;-92
2022/04/15 05:52:54;;;;;;;72.13;48.03;;;8.30;90.30;;;;;;4999770;28;20181;-93
2022/04/15 05:55:20;;;;;;;67.70;43.43;;;8.30;90.30;;;;;;5003267;28;20620;-93
2022/04/15 05:57:46;;;;;;;68.53;46.20;;;8.30;90.20;;;;;;5004639;28;20303;-94
2022/04/15 06:00:12;;;;;;;59.23;44.70;;;8.30;90.20;;;;;;5006942;28;20181;-93
2022/04/15 06:02:38;;;;;;;57.27;35.43;;;8.30;90.10;;;;;;5000649;28;20184;-91
2022/04/15 06:05:04;;;;;;;45.00;29.70;;;8.30;90.00;;;;;;5000429;28;20178;-93
2022/04/15 06:07:29;;;;;;;49.77;30.73;;;8.30;90.00;;;;;;5008180;28;20292;-93
2022/04/15 06:09:55;;;;;;;49.30;31.90;;;8.30;90.00;;;;;;5006342;28;20236;-93
2022/04/15 06:12:22;;;;;;;41.77;25.90;;;8.30;90.00;;;;;;5005921;28;20170;-92
2022/04/15 06:14:51;;;;;;;45.83;26.63;;;8.20;90.10;;;;;;5009005;28;20196;-94
2022/04/15 06:17:21;;;;;;;42.90;27.13;;;8.30;90.20;;;;;;5060471;23;20256;-93
2022/04/15 06:19:47;;;;;;;52.47;28.30;;;8.30;90.20;;;;;;5008374;28;20179;-93
2022/04/15 06:22:13;;;;;;;51.53;29.70;;;8.20;90.40;;;;;;5009301;28;20251;-93
2022/04/15 06:24:39;;;;;;;50.47;31.53;;;8.20;90.50;;;;;;5013518;28;20249;-92
2022/04/15 06:27:04;;;;;;;55.97;31.67;;;8.20;90.60;;;;;;4994590;28;20206;-93
2022/04/15 06:29:30;;;;;;;60.87;34.13;;;8.20;90.60;;;;;;4989891;28;20209;-92
2022/04/15 06:31:55;;;;;;;57.63;32.53;;;8.20;90.60;;;;;;4988855;28;20170;-92
2022/04/15 06:34:21;;;;;;;67.20;37.40;;;8.20;90.60;;;;;;4985843;28;20640;-92
2022/04/15 06:36:47;;;;;;;64.10;36.10;;;8.20;90.60;;;;;;4988430;28;20193;-93
2022/04/15 06:39:13;;;;;;;72.80;41.47;;;8.20;90.60;;;;;;4990222;28;20277;-93
2022/04/15 06:41:40;;;;;;;71.73;40.67;;;8.20;90.60;;;;;;4982168;28;20182;-93
2022/04/15 06:44:06;;;;;;;67.60;40.23;;;8.20;90.60;;;;;;4994370;28;20178;-94
2022/04/15 06:46:32;;;;;;;74.87;42.87;;;8.20;90.50;;;;;;4979802;28;20190;-93
2022/04/15 06:48:57;;;;;;;66.33;41.93;;;8.30;90.50;;;;;;4979691;28;20221;-93
2022/04/15 06:51:25;;;;;;;67.87;41.93;;;8.20;90.50;;;;;;4979909;28;20640;-93
2022/04/15 06:53:51;;;;;;;74.73;40.67;;;8.20;90.50;;;;;;4979492;28;20170;-93
2022/04/15 06:56:16;;;;;;;42.90;26.60;;;8.30;90.50;;;;;;4979459;28;20280;-93
2022/04/15 06:58:42;;;;;;;29.73;20.93;;;8.30;90.40;;;;;;4979432;28;20248;-93
2022/04/15 07:01:07;;;;;;;30.00;20.50;;;8.30;90.10;;;;;;4979897;28;20189;-93
2022/04/15 07:03:33;;;;;;;29.43;20.13;;;8.30;90.00;;;;;;4979490;28;20189;-93
2022/04/15 07:05:58;;;;;;;32.23;20.67;;;8.30;89.80;;;;;;4980087;28;20679;-92
2022/04/15 07:08:24;;;;;;;37.40;22.63;;;8.30;89.70;;;;;;4997018;28;20198;-93
2022/04/15 07:10:49;;;;;;;35.17;22.00;;;8.30;89.70;;;;;;4979330;28;20205;-93
2022/04/15 07:13:15;;;;;;;44.90;25.17;;;8.30;89.60;;;;;;4979297;28;20648;-93
2022/04/15 07:15:40;;;;;;;39.53;25.17;;;8.30;89.60;;;;;;4979147;28;20177;-93
2022/04/15 07:18:06;;;;;;;44.80;26.40;;;8.30;89.60;;;;;;4978975;28;20216;-93
2022/04/15 07:20:32;;;;;;;47.67;29.07;;;8.30;89.70;;;;;;4979189;28;20185;-93
2022/04/15 07:22:58;;;;;;;50.17;30.40;;;8.30;89.70;;;;;;4996519;28;20167;-93
2022/04/15 07:25:25;;;;;;;43.13;25.37;;;8.30;89.70;;;;;;4996373;28;20618;-93
2022/04/15 07:27:50;;;;;;;42.00;25.70;;;8.40;89.80;;;;;;4978993;28;20280;-93
2022/04/15 07:30:17;;;;;;;48.00;27.67;;;8.40;89.70;;;;;;4978912;28;20285;-93
2022/04/15 07:32:44;;;;;;;49.70;29.57;;;8.50;89.70;;;;;;4978547;28;20185;-93
2022/04/15 07:35:09;;;;;;;47.10;31.47;;;8.60;89.60;;;;;;4979104;28;20693;-94
2022/04/15 07:37:35;;;;;;;43.40;29.03;;;8.70;89.60;;;;;;4978846;28;20194;-93
2022/04/15 07:40:01;;;;;;;47.47;30.70;;;8.70;89.50;;;;;;4978781;28;20248;-93
2022/04/15 07:42:26;;;;;;;38.40;25.77;;;8.80;89.40;;;;;;4979539;28;20640;-93
2022/04/15 07:44:52;;;;;;;37.77;27.10;;;8.80;89.00;;;;;;4979228;28;20185;-93
2022/04/15 07:47:17;;;;;;;39.93;27.57;;;8.80;88.70;;;;;;4978930;28;20197;-93
2022/04/15 07:49:43;;;;;;;37.30;27.07;;;8.80;88.60;;;;;;4996347;28;20562;-94
2022/04/15 07:52:09;;;;;;;41.00;26.30;;;8.80;88.30;;;;;;4978873;28;20216;-93
2022/04/15 07:54:34;;;;;;;33.80;23.97;;;8.80;87.70;;;;;;4978711;28;20284;-93
2022/04/15 07:57:01;;;;;;;37.80;25.50;;;8.80;87.70;;;;;;4978860;28;20197;-94
2022/04/15 07:59:27;;;;;;;43.57;27.63;;;8.90;87.90;;;;;;4978928;28;20182;-93
2022/04/15 08:01:53;;;;;;;35.13;25.97;;;9.00;87.70;;;;;;4978449;28;20208;-93
2022/04/15 08:04:20;;;;;;;33.43;23.77;;;8.90;87.40;;;;;;4978423;28;20711;-94
2022/04/15 08:06:45;;;;;;;35.43;22.37;;;8.90;87.30;;;;;;4978787;28;20206;-94
2022/04/15 08:09:11;;;;;;;34.17;25.13;;;8.90;87.00;;;;;;4979227;28;20562;-93
2022/04/15 08:11:37;;;;;;;32.63;22.83;;;8.90;86.80;;;;;;4978940;28;20543;-93
2022/04/15 08:14:02;;;;;;;29.93;21.63;;;8.90;86.50;;;;;;4978534;28;20174;-93
2022/04/15 08:16:28;;;;;;;32.27;22.67;;;8.90;86.30;;;;;;4978052;28;20194;-92
2022/04/15 08:18:56;;;;;;;33.63;23.20;;;9.00;86.40;;;;;;4978947;28;20194;-93
2022/04/15 08:21:22;;;;;;;31.50;22.67;;;9.00;86.50;;;;;;4978254;28;20184;-94
2022/04/15 08:23:47;;;;;;;31.47;21.73;;;9.10;86.50;;;;;;4978612;28;20256;-93
2022/04/15 08:26:13;;;;;;;30.27;22.40;;;9.00;86.20;;;;;;4978042;28;20170;-93
2022/04/15 08:28:39;;;;;;;31.27;22.57;;;9.10;86.00;;;;;;4978044;28;20751;-94
2022/04/15 08:31:04;;;;;;;35.17;23.27;;;9.10;85.90;;;;;;4978052;28;20180;-94
2022/04/15 08:33:30;;;;;;;28.07;21.03;;;9.20;86.00;;;;;;4978138;28;20195;-93
2022/04/15 08:35:55;;;;;;;36.37;23.57;;;9.20;85.70;;;;;;4977997;28;20550;-93
2022/04/15 08:38:21;;;;;;;29.07;22.27;;;9.20;85.40;;;;;;5081727;23;20295;-87
2022/04/15 08:40:49;;;;;;;34.20;23.53;;;9.30;85.30;;;;;;4996683;28;20181;-87
2022/04/15 08:43:15;;;;;;;27.13;21.17;;;9.40;85.40;;;;;;4996172;28;20287;-87
2022/04/15 08:45:42;;;;;;;29.63;20.70;;;9.50;85.20;;;;;;4996690;28;20235;-87
2022/04/15 08:48:09;;;;;;;31.60;21.57;;;9.50;84.90;;;;;;4996504;28;20217;-87
2022/04/15 08:50:34;;;;;;;31.73;22.03;;;9.50;84.50;;;;;;4996553;28;20230;-87
2022/04/15 08:53:01;;;;;;;28.30;21.20;;;9.50;84.60;;;;;;4996584;28;20181;-87
2022/04/15 08:55:29;;;;;;;29.37;21.33;;;9.60;84.40;;;;;;4996511;28;20181;-87
2022/04/15 08:57:56;;;;;;;28.20;20.37;;;9.60;84.40;;;;;;5013961;28;20671;-87
2022/04/15 09:00:23;;;;;;;29.10;20.77;;;9.70;84.60;;;;;;4997248;28;20216;-87
2022/04/15 09:02:50;;;;;;;31.53;21.20;;;9.80;84.70;;;;;;4996389;28;20169;-87
2022/04/15 09:05:21;;;;;;;26.43;20.27;;;9.90;84.60;;;;;;4996301;28;20592;-87
2022/04/15 09:07:47;;;;;;;25.93;19.63;;;9.90;84.00;;;;;;4996291;28;20569;-87
2022/04/15 09:10:14;;;;;;;25.23;19.77;;;10.00;83.70;;;;;;5012775;28;20192;-87
2022/04/15 09:12:41;;;;;;;25.60;18.53;;;9.90;82.90;;;;;;4996287;28;20227;-87
2022/04/15 09:15:07;;;;;;;24.97;17.87;;;9.90;83.00;;;;;;4996217;28;20652;-87
2022/04/15 09:17:35;;;;;;;27.40;19.13;;;9.80;82.30;;;;;;4996401;28;20201;-87
2022/04/15 09:20:02;;;;;;;25.07;17.33;;;9.90;83.00;;;;;;4996043;28;20208;-88
2022/04/15 09:22:28;;;;;;;27.37;18.23;;;10.00;82.90;;;;;;4995993;28;20670;-87
2022/04/15 09:24:53;;;;;;;22.10;17.13;;;9.90;82.70;;;;;;4996132;28;20258;-87
2022/04/15 09:27:25;;;;;;;24.23;17.53;;;10.00;82.60;;;;;;5013626;28;20276;-87
2022/04/15 09:29:54;;;;;;;29.73;19.13;;;10.00;82.30;;;;;;4996335;28;20652;-87
2022/04/15 09:32:19;;;;;;;27.00;17.70;;;10.00;82.50;;;;;;4995888;28;20243;-87
2022/04/15 09:35:07;;;;;;;27.87;18.27;;;10.00;82.40;;;;;;4996273;28;20181;-87
2022/04/15 09:37:39;;;;;;;23.13;17.90;;;10.00;82.50;;;;;;4995879;28;20347;-87
2022/04/15 09:40:09;;;;;;;22.90;16.60;;;10.10;82.80;;;;;;4995943;28;20193;-87
2022/04/15 09:42:36;;;;;;;23.60;17.13;;;10.10;82.50;;;;;;4996033;28;20174;-87
2022/04/15 09:45:23;;;;;;;25.93;18.20;;;10.00;81.90;;;;;;5013415;28;20170;-87
2022/04/15 09:47:56;;;;;;;23.90;16.50;;;9.90;82.10;;;;;;5003340;28;20574;-87
2022/04/15 09:50:27;;;;;;;21.87;17.77;;;9.90;82.30;;;;;;4996129;28;20216;-88
2022/04/15 09:52:54;;;;;;;26.77;18.93;;;9.90;82.50;;;;;;4995718;28;20180;-87
2022/04/15 09:55:23;;;;;;;26.87;18.83;;;9.90;82.50;;;;;;4997581;28;20586;-88
2022/04/15 09:57:49;;;;;;;23.53;18.20;;;10.00;82.50;;;;;;5000638;28;20600;-87
2022/04/15 10:00:16;;;;;;;24.70;18.10;;;10.00;82.40;;;;;;4999779;28;20201;-87
2022/04/15 10:02:43;;;;;;;24.23;17.07;;;10.00;82.20;;;;;;5000177;28;20740;-87
2022/04/15 10:05:12;;;;;;;24.70;18.17;;;10.00;82.30;;;;;;4999812;28;20169;-87
2022/04/15 10:07:40;;;;;;;30.40;20.17;;;10.00;82.20;;;;;;4999605;28;20204;-88
2022/04/15 10:10:06;;;;;;;25.60;18.90;;;10.00;82.40;;;;;;4999694;28;20234;-88
2022/04/15 10:12:37;;;;;;;28.00;18.57;;;10.00;82.30;;;;;;4999739;28;20284;-88
2022/04/15 10:15:04;;;;;;;26.40;19.37;;;10.00;82.50;;;;;;5017184;28;20300;-87
2022/04/15 10:17:29;;;;;;;24.83;17.80;;;10.00;82.90;;;;;;4999353;28;20258;-88
2022/04/15 10:19:55;;;;;;;23.57;17.27;;;9.90;82.80;;;;;;5016913;28;20683;-87
2022/04/15 10:22:21;;;;;;;23.07;17.40;;;10.00;82.80;;;;;;4999408;28;20177;-87
2022/04/15 10:24:47;;;;;;;28.30;18.67;;;10.00;82.70;;;;;;4999487;28;20179;-87
2022/04/15 10:27:13;;;;;;;22.63;17.00;;;10.00;82.50;;;;;;4999339;28;20193;-88
2022/04/15 10:29:38;;;;;;;22.57;16.97;;;10.00;82.50;;;;;;4999320;28;20598;-87
2022/04/15 10:32:12;;;;;;;21.87;16.70;;;10.00;82.60;;;;;;4999159;28;20182;-87
2022/04/15 10:34:46;;;;;;;22.87;17.70;;;10.00;82.80;;;;;;4999064;28;20228;-88
2022/04/15 10:37:11;;;;;;;25.97;17.33;;;10.10;83.00;;;;;;4998876;28;20579;-87
2022/04/15 10:39:55;;;;;;;21.07;15.90;;;10.10;82.70;;;;;;5000246;28;20225;-87
2022/04/15 10:42:22;;;;;;;23.83;15.37;;;10.20;82.50;;;;;;4999218;28;20165;-88
2022/04/15 10:44:48;;;;;;;23.83;17.20;;;10.10;82.30;;;;;;4998994;28;20205;-87
2022/04/15 10:47:17;;;;;;;25.43;18.03;;;10.20;82.80;;;;;;4998953;28;20208;-88
2022/04/15 10:50:06;;;;;;;32.57;17.23;;;10.20;82.80;;;;;;4999252;28;20528;-88
2022/04/15 10:52:36;;;;;;;26.90;17.30;;;10.20;82.60;;;;;;4999578;28;20173;-87
2022/04/15 10:55:05;;;;;;;21.80;17.50;;;10.20;82.80;;;;;;4998790;28;20191;-88
2022/04/15 10:57:32;;;;;;;25.37;17.20;;;10.30;82.90;;;;;;4998735;28;20228;-87
2022/04/15 11:02:45;;;;;;;23.43;16.93;;;10.40;82.00;;;;;;5016648;28;20196;-87
2022/04/15 11:05:54;;;;;;;26.27;16.23;;;10.30;81.80;;;;;;4998539;28;20188;-88
2022/04/15 11:08:22;;;;;;;22.77;16.33;;;10.30;82.00;;;;;;4939424;29;20302;-88
2022/04/15 11:11:03;;;;;;;22.60;15.83;;;10.40;81.80;;;;;;4955766;28;20175;-88
2022/04/15 11:13:39;;;;;;;22.80;15.83;;;10.50;81.70;;;;;;4991253;28;20197;-88
2022/04/15 11:16:10;;;;;;;22.90;16.27;;;10.50;81.70;;;;;;4998535;28;20227;-88
2022/04/15 11:18:52;;;;;;;28.10;17.47;;;10.30;81.90;;;;;;4999178;28;20201;-87
2022/04/15 11:21:21;;;;;;;28.90;17.57;;;10.50;82.30;;;;;;4998314;28;20172;-88
2022/04/15 11:23:52;;;;;;;39.00;20.93;;;10.60;82.20;;;;;;4998324;28;20671;-88
2022/04/15 11:26:19;;;;;;;25.03;16.57;;;10.60;81.90;;;;;;4998477;28;20170;-88
2022/04/15 11:28:47;;;;;;;19.73;14.40;;;10.60;81.80;;;;;;4998166;28;20197;-88
2022/04/15 11:31:22;;;;;;;22.23;15.63;;;10.60;81.60;;;;;;4998144;28;20629;-88
2022/04/15 11:33:47;;;;;;;21.50;15.13;;;10.50;81.70;;;;;;5015601;28;20177;-88
2022/04/15 11:36:13;;;;;;;21.00;14.60;;;10.50;82.10;;;;;;4998168;28;20548;-87
2022/04/15 11:38:39;;;;;;;19.93;15.90;;;10.40;82.20;;;;;;4997852;28;20260;-87
2022/04/15 11:41:05;;;;;;;26.27;16.80;;;10.40;82.40;;;;;;4997979;28;20284;-87
2022/04/15 11:43:31;;;;;;;23.20;16.37;;;10.50;82.40;;;;;;5015756;28;20624;-88
2022/04/15 11:45:56;;;;;;;23.03;17.00;;;10.50;82.00;;;;;;4998080;28;20177;-88
2022/04/15 11:48:24;;;;;;;28.73;18.43;;;10.50;82.10;;;;;;4998054;28;20729;-87
2022/04/15 11:50:52;;;;;;;23.17;16.70;;;10.60;82.30;;;;;;4997806;28;20663;-88
2022/04/15 11:53:18;;;;;;;19.00;14.87;;;10.60;82.20;;;;;;4998116;28;20180;-88
2022/04/15 11:55:58;;;;;;;24.17;16.70;;;10.70;82.00;;;;;;4997850;28;20208;-87
2022/04/15 11:58:30;;;;;;;26.17;14.60;;;10.70;81.80;;;;;;5015022;28;20745;-88
2022/04/15 12:00:57;;;;;;;21.93;14.97;;;10.70;81.40;;;;;;5015601;28;20240;-88
2022/04/15 12:03:24;;;;;;;22.23;16.10;;;10.60;81.50;;;;;;4997652;28;20174;-88
2022/04/15 12:05:51;;;;;;;21.13;14.67;;;10.70;81.60;;;;;;5015376;28;20174;-87
2022/04/15 12:08:18;;;;;;;19.57;14.13;;;10.80;81.50;;;;;;4997498;28;20197;-88
2022/04/15 12:10:44;;;;;;;21.33;14.40;;;10.80;81.50;;;;;;4997381;28;20173;-87
2022/04/15 12:13:11;;;;;;;23.47;14.80;;;10.80;81.10;;;;;;4997301;28;20643;-88
2022/04/15 12:15:37;;;;;;;18.97;15.10;;;10.90;81.50;;;;;;4997231;28;20184;-88
2022/04/15 12:18:04;;;;;;;21.93;15.27;;;10.80;81.30;;;;;;4996291;28;20284;-88
2022/04/15 12:20:30;;;;;;;19.43;14.43;;;10.90;81.40;;;;;;4997044;28;20223;-88
2022/04/15 12:22:57;;;;;;;22.20;14.33;;;10.90;81.20;;;;;;4997181;28;20173;-87
2022/04/15 12:25:23;;;;;;;22.60;12.43;;;10.80;80.80;;;;;;5014681;28;20176;-88
2022/04/15 12:27:50;;;;;;;21.23;13.57;;;10.80;80.70;;;;;;4997003;28;20189;-87
2022/04/15 12:30:37;;;;;;;18.37;13.27;;;10.70;81.00;;;;;;4997064;28;20648;-88
2022/04/15 12:33:13;;;;;;;21.70;14.37;;;10.70;81.50;;;;;;5015095;28;20181;-87
2022/04/15 12:36:01;;;;;;;20.33;13.27;;;10.60;81.40;;;;;;4997142;28;20284;-87
2022/04/15 12:38:27;;;;;;;18.20;13.67;;;10.60;81.70;;;;;;4996995;28;20227;-89
2022/04/15 12:40:59;;;;;;;17.30;14.07;;;10.60;81.90;;;;;;5014578;28;20256;-88
2022/04/15 12:43:25;;;;;;;18.90;13.93;;;10.70;82.00;;;;;;4997048;28;20169;-89
2022/04/15 12:45:55;;;;;;;22.57;13.93;;;10.70;82.20;;;;;;4996733;28;20180;-89
2022/04/15 12:48:21;;;;;;;19.57;13.63;;;10.70;81.80;;;;;;4996647;28;20190;-89
2022/04/15 12:50:52;;;;;;;19.40;13.23;;;10.60;81.80;;;;;;5014266;28;20219;-89
2022/04/15 12:53:20;;;;;;;16.83;12.63;;;10.70;82.10;;;;;;5014180;28;20162;-89
2022/04/15 12:55:46;;;;;;;19.17;12.70;;;10.70;81.70;;;;;;4996597;28;20177;-89
2022/04/15 12:58:20;;;;;;;15.77;12.50;;;10.70;81.70;;;;;;4996371;28;20189;-89
2022/04/15 13:00:48;;;;;;;16.03;11.90;;;10.70;81.60;;;;;;4996556;28;20166;-89
2022/04/15 13:03:17;;;;;;;19.70;13.13;;;10.70;81.50;;;;;;5014006;28;20219;-89
2022/04/15 13:05:46;;;;;;;16.93;12.17;;;10.70;82.00;;;;;;5013906;28;20166;-89
2022/04/15 13:08:15;;;;;;;16.33;10.17;;;10.70;81.80;;;;;;4996367;28;20561;-89
2022/04/15 13:10:41;;;;;;;13.53;10.70;;;10.70;81.50;;;;;;5014167;28;20169;-89
2022/04/15 13:13:07;;;;;;;17.40;11.33;;;10.70;81.70;;;;;;4996607;28;20180;-88
2022/04/15 13:15:32;;;;;;;15.27;11.03;;;10.80;82.00;;;;;;4996422;28;20177;-89
2022/04/15 13:17:58;;;;;;;15.63;11.10;;;10.80;81.30;;;;;;4996287;28;20626;-89
2022/04/15 13:20:23;;;;;;;18.70;11.27;;;10.80;81.40;;;;;;5013910;28;20617;-89
2022/04/15 13:22:49;;;;;;;16.57;11.17;;;10.70;80.90;;;;;;4996163;28;20182;-89
2022/04/15 13:25:15;;;;;;;14.93;11.37;;;10.80;81.70;;;;;;4996141;28;20643;-89
2022/04/15 13:27:40;;;;;;;15.20;11.93;;;10.70;81.20;;;;;;4996038;28;20557;-89
2022/04/15 13:30:06;;;;;;;17.80;11.73;;;10.60;81.50;;;;;;4995790;28;20180;-89
2022/04/15 13:32:32;;;;;;;16.23;12.00;;;10.70;82.00;;;;;;4997191;28;20209;-89
2022/04/15 13:34:58;;;;;;;18.67;13.13;;;10.60;81.80;;;;;;4996107;28;20585;-89
2022/04/15 13:37:23;;;;;;;18.60;12.87;;;10.70;82.40;;;;;;4995803;28;20220;-89
2022/04/15 13:39:50;;;;;;;18.73;12.13;;;10.50;82.20;;;;;;5014171;28;20229;-89
2022/04/15 13:42:17;;;;;;;18.33;12.17;;;10.60;82.60;;;;;;5013513;28;20260;-88